Boris Syromyatnikov — UCUF — position and weather

sailwx.info

Track history (hours):
 
Tides and Currents Weather Stations Pressure Air Temp Water Temp Dewpoint Dewpoint Depression Visibility Wind Speed Wind Dir Waves Ship Positions

Boris Syromyatnikov

Last reported at 2014-Jul-20 12:33 UTC. Time now 2014-Jul-24 17:51 UTC.
Position N 67°11' W 002°20'.

Length 120 m; beam 19 m.

Type: Fishing. MMSI: 273529800.

Date/timePositionNaut miles runAvg speedWind from/ knotsBaromVisibWave heightAir tempDewpointWater temp
2014-Jul-20 12:33N 67°11' W 002°20'1613.4
2014-Jul-20 11:21N 67°01' W 001°48'2812.5
2014-Jul-20 09:06N 66°53' W 000°39'2 3.6
2014-Jul-20 08:33N 66°51' W 000°35'4 3.8
2014-Jul-20 07:33N 66°49' W 000°28'4 4.0
2014-Jul-20 06:33N 66°45' W 000°30'4 3.8
2014-Jul-20 05:33N 66°44' W 000°39'5 4.5
2014-Jul-20 04:33N 66°44' W 000°28'5 4.9
2014-Jul-20 03:33N 66°43' W 000°15'3 2.8
2014-Jul-20 02:33N 66°44' W 000°22'8 8.3
2014-Jul-20 01:33N 66°47' W 000°41'3 2.9
2014-Jul-20 00:33N 66°46' W 000°34'7 3.7
2014-Jul-19 22:33N 66°44' W 000°16'5 4.9
2014-Jul-19 21:33N 66°42' W 000°05'5 4.5
2014-Jul-19 20:33N 66°44' W 000°16'1 1.2
2014-Jul-19 19:27N 66°44' W 000°19'8 7.8
2014-Jul-19 18:27N 66°51' W 000°11'3 3.4
2014-Jul-19 17:33N 66°50' W 000°05'4 3.5
2014-Jul-19 16:21N 66°47' E 000°04'4 4.5
2014-Jul-19 15:33N 66°44' E 000°09'5 4.8
2014-Jul-19 14:33N 66°40' E 000°02'5 5.1
2014-Jul-19 13:33N 66°37' W 000°08'7 6.9
2014-Jul-19 12:33N 66°31' W 000°18'1010.5
2014-Jul-19 11:33N 66°39' W 000°01'1111.5
2014-Jul-19 10:33N 66°41' E 000°27'3 2.9
2014-Jul-19 09:24N 66°44' E 000°32'3 3.1
2014-Jul-19 08:33N 66°47' E 000°33'4 3.6
2014-Jul-19 07:33N 66°50' E 000°37'4 3.8
2014-Jul-19 06:33N 66°49' E 000°46'0 0.1
2014-Jul-19 05:33N 66°49' E 000°46'4 3.6
2014-Jul-19 04:33N 66°52' E 000°40'4 4.1
2014-Jul-19 03:33N 66°56' E 000°40'4 4.1
2014-Jul-19 02:33N 66°60' E 000°39'4 4.0
2014-Jul-19 01:33N 67°04' E 000°36'1 0.7
2014-Jul-19 00:33N 67°03' E 000°35'10 9.8
2014-Jul-18 23:33N 67°11' E 000°19'3 3.2
2014-Jul-18 22:33N 67°13' E 000°24'5 4.5
2014-Jul-18 21:33N 67°17' E 000°31'46 5.5
2014-Jul-18 13:09N 67°14' E 002°29'17 4.2
2014-Jul-18 09:03N 67°05' E 003°07'11 4.0
2014-Jul-18 06:24N 66°60' E 002°44'6 2.8
2014-Jul-18 04:12N 67°05' E 002°49'7 1.9
2014-Jul-18 00:33N 67°02' E 002°35'7 3.5
2014-Jul-17 22:30N 66°55' E 002°44'12 2.4
2014-Jul-17 17:15N 66°55' E 002°12'5 7.3
2014-Jul-17 16:33N 66°60' E 002°09'7 3.0
2014-Jul-17 14:18N 66°60' E 002°26'16 4.3
2014-Jul-17 10:30N 66°54' E 001°47'9 8.7
2014-Jul-17 09:27N 66°45' E 001°45'12 2.0
2014-Jul-17 03:33N 66°56' E 001°36'6 5.5
2014-Jul-17 02:24N 67°02' E 001°33'31 2.6
2014-Jul-16 14:24N 67°09' E 000°15'7 7.0
2014-Jul-16 13:24N 67°13' E 000°29'12 3.6
2014-Jul-16 10:12N 67°14' W 000°01'7 1.9
2014-Jul-16 06:18N 67°07' W 000°03'20 3.9
2014-Jul-16 01:09N 67°16' E 000°43'8 3.2
2014-Jul-15 22:31N 67°14' E 000°21'6 1.0
2014-Jul-15 16:21N 67°19' E 000°11'6 6.1
2014-Jul-15 15:27N 67°17' E 000°25'4 3.0
2014-Jul-15 14:16N 67°18' E 000°34'19 4.7
2014-Jul-15 10:19N 67°15' W 000°14'3 3.6
2014-Jul-15 09:33N 67°17' W 000°09'24 4.3
2014-Jul-15 04:04N 67°22' E 000°51'8 4.5
2014-Jul-15 02:19N 67°26' E 000°32'27 3.8
2014-Jul-14 19:10N 67°53' E 000°31'35 3.9
2014-Jul-14 10:13N 67°46' E 002°02'25 8.8
2014-Jul-14 07:25N 67°41' E 003°06'13 2.7
2014-Jul-14 02:22N 67°55' E 003°04'8 3.7
2014-Jul-14 00:10N 67°47' E 002°58'6 9.2
2014-Jul-13 23:28N 67°53' E 003°06'4 3.1
2014-Jul-13 22:19N 67°55' E 002°59'9 4.9
2014-Jul-13 20:25N 67°45' E 003°02'5 5.2
2014-Jul-13 19:25N 67°51' E 003°04'23 5.7
2014-Jul-13 15:22N 67°47' E 002°03'35 2.1
2014-Jul-12 22:13N 68°05' E 000°42'1 1.7
2014-Jul-12 21:25N 68°04' E 000°44'5 1.1
2014-Jul-12 17:25N 68°06' E 000°54'9 8.3
2014-Jul-12 16:22N 67°58' E 000°60'13 2.7
2014-Jul-12 11:25N 68°11' E 000°51'21 5.3
2014-Jul-12 07:22N 68°08' E 001°49'7 7.8
2014-Jul-12 06:31N 68°14' E 001°58'62 3.8
2014-Jul-11 14:16N 68°34' W 000°40'  
Track history (hours):
 
Tides and Currents Weather Stations Pressure Air Temp Water Temp Dewpoint Dewpoint Depression Visibility Wind Speed Wind Dir Waves Ship Positions

Boris Syromyatnikov

Last reported at 2014-Jul-20 12:33 UTC. Time now 2014-Jul-24 17:51 UTC.
Position N 67°11' W 002°20'.

Length 120 m; beam 19 m.

Type: Fishing. MMSI: 273529800.

Date/timePositionNaut miles runAvg speedWind from/ knotsBaromVisibWave heightAir tempDewpointWater temp
2014-Jul-20 12:33N 67°11' W 002°20'1613.4
2014-Jul-20 11:21N 67°01' W 001°48'2812.5
2014-Jul-20 09:06N 66°53' W 000°39'2 3.6
2014-Jul-20 08:33N 66°51' W 000°35'4 3.8
2014-Jul-20 07:33N 66°49' W 000°28'4 4.0
2014-Jul-20 06:33N 66°45' W 000°30'4 3.8
2014-Jul-20 05:33N 66°44' W 000°39'5 4.5
2014-Jul-20 04:33N 66°44' W 000°28'5 4.9
2014-Jul-20 03:33N 66°43' W 000°15'3 2.8
2014-Jul-20 02:33N 66°44' W 000°22'8 8.3
2014-Jul-20 01:33N 66°47' W 000°41'3 2.9
2014-Jul-20 00:33N 66°46' W 000°34'7 3.7
2014-Jul-19 22:33N 66°44' W 000°16'5 4.9
2014-Jul-19 21:33N 66°42' W 000°05'5 4.5
2014-Jul-19 20:33N 66°44' W 000°16'1 1.2
2014-Jul-19 19:27N 66°44' W 000°19'8 7.8
2014-Jul-19 18:27N 66°51' W 000°11'3 3.4
2014-Jul-19 17:33N 66°50' W 000°05'4 3.5
2014-Jul-19 16:21N 66°47' E 000°04'4 4.5
2014-Jul-19 15:33N 66°44' E 000°09'5 4.8
2014-Jul-19 14:33N 66°40' E 000°02'5 5.1
2014-Jul-19 13:33N 66°37' W 000°08'7 6.9
2014-Jul-19 12:33N 66°31' W 000°18'1010.5
2014-Jul-19 11:33N 66°39' W 000°01'1111.5
2014-Jul-19 10:33N 66°41' E 000°27'3 2.9
2014-Jul-19 09:24N 66°44' E 000°32'3 3.1
2014-Jul-19 08:33N 66°47' E 000°33'4 3.6
2014-Jul-19 07:33N 66°50' E 000°37'4 3.8
2014-Jul-19 06:33N 66°49' E 000°46'0 0.1
2014-Jul-19 05:33N 66°49' E 000°46'4 3.6
2014-Jul-19 04:33N 66°52' E 000°40'4 4.1
2014-Jul-19 03:33N 66°56' E 000°40'4 4.1
2014-Jul-19 02:33N 66°60' E 000°39'4 4.0
2014-Jul-19 01:33N 67°04' E 000°36'1 0.7
2014-Jul-19 00:33N 67°03' E 000°35'10 9.8
2014-Jul-18 23:33N 67°11' E 000°19'3 3.2
2014-Jul-18 22:33N 67°13' E 000°24'5 4.5
2014-Jul-18 21:33N 67°17' E 000°31'46 5.5
2014-Jul-18 13:09N 67°14' E 002°29'17 4.2
2014-Jul-18 09:03N 67°05' E 003°07'11 4.0
2014-Jul-18 06:24N 66°60' E 002°44'6 2.8
2014-Jul-18 04:12N 67°05' E 002°49'7 1.9
2014-Jul-18 00:33N 67°02' E 002°35'7 3.5
2014-Jul-17 22:30N 66°55' E 002°44'12 2.4
2014-Jul-17 17:15N 66°55' E 002°12'5 7.3
2014-Jul-17 16:33N 66°60' E 002°09'7 3.0
2014-Jul-17 14:18N 66°60' E 002°26'16 4.3
2014-Jul-17 10:30N 66°54' E 001°47'9 8.7
2014-Jul-17 09:27N 66°45' E 001°45'12 2.0
2014-Jul-17 03:33N 66°56' E 001°36'6 5.5
2014-Jul-17 02:24N 67°02' E 001°33'31 2.6
2014-Jul-16 14:24N 67°09' E 000°15'7 7.0
2014-Jul-16 13:24N 67°13' E 000°29'12 3.6
2014-Jul-16 10:12N 67°14' W 000°01'7 1.9
2014-Jul-16 06:18N 67°07' W 000°03'20 3.9
2014-Jul-16 01:09N 67°16' E 000°43'8 3.2
2014-Jul-15 22:31N 67°14' E 000°21'6 1.0
2014-Jul-15 16:21N 67°19' E 000°11'6 6.1
2014-Jul-15 15:27N 67°17' E 000°25'4 3.0
2014-Jul-15 14:16N 67°18' E 000°34'19 4.7
2014-Jul-15 10:19N 67°15' W 000°14'3 3.6
2014-Jul-15 09:33N 67°17' W 000°09'24 4.3
2014-Jul-15 04:04N 67°22' E 000°51'8 4.5
2014-Jul-15 02:19N 67°26' E 000°32'27 3.8
2014-Jul-14 19:10N 67°53' E 000°31'35 3.9
2014-Jul-14 10:13N 67°46' E 002°02'25 8.8
2014-Jul-14 07:25N 67°41' E 003°06'13 2.7
2014-Jul-14 02:22N 67°55' E 003°04'8 3.7
2014-Jul-14 00:10N 67°47' E 002°58'6 9.2
2014-Jul-13 23:28N 67°53' E 003°06'4 3.1
2014-Jul-13 22:19N 67°55' E 002°59'9 4.9
2014-Jul-13 20:25N 67°45' E 003°02'5 5.2
2014-Jul-13 19:25N 67°51' E 003°04'23 5.7
2014-Jul-13 15:22N 67°47' E 002°03'35 2.1
2014-Jul-12 22:13N 68°05' E 000°42'1 1.7
2014-Jul-12 21:25N 68°04' E 000°44'5 1.1
2014-Jul-12 17:25N 68°06' E 000°54'9 8.3
2014-Jul-12 16:22N 67°58' E 000°60'13 2.7
2014-Jul-12 11:25N 68°11' E 000°51'21 5.3
2014-Jul-12 07:22N 68°08' E 001°49'7 7.8
2014-Jul-12 06:31N 68°14' E 001°58'62 3.8
2014-Jul-11 14:16N 68°34' W 000°40'  

Dump ship's entire track history